createdAt,value
2018-02-21T00:00:59.534Z,81.40
2018-02-21T00:03:27.014Z,81.37
2018-02-21T00:05:55.222Z,81.60
2018-02-21T00:08:22.697Z,81.93
2018-02-21T00:10:50.154Z,91.23
2018-02-21T00:13:17.710Z,81.10
2018-02-21T00:15:45.167Z,87.13
2018-02-21T00:18:12.653Z,84.57
2018-02-21T00:20:40.102Z,86.00
2018-02-21T00:23:07.581Z,83.23
2018-02-21T00:25:35.026Z,84.97
2018-02-21T00:28:02.498Z,82.57
2018-02-21T00:30:30.714Z,92.00
2018-02-21T00:32:58.183Z,82.03
2018-02-21T00:35:25.626Z,82.77
2018-02-21T00:37:53.082Z,83.33
2018-02-21T00:40:20.554Z,87.57
2018-02-21T00:42:48.770Z,85.27
2018-02-21T00:45:16.226Z,82.30
2018-02-21T00:47:44.477Z,88.73
2018-02-21T00:50:11.948Z,85.23
2018-02-21T00:52:40.898Z,87.30
2018-02-21T00:55:08.367Z,85.73
2018-02-21T00:57:36.594Z,96.90
2018-02-21T01:00:04.863Z,91.77
2018-02-21T01:02:32.310Z,84.73
2018-02-21T01:04:59.778Z,85.03
2018-02-21T01:07:27.234Z,83.83
2018-02-21T01:09:54.702Z,83.17
2018-02-21T01:12:22.152Z,83.70
2018-02-21T01:14:49.610Z,86.47
2018-02-21T01:17:17.070Z,92.23
2018-02-21T01:19:44.535Z,90.77
2018-02-21T01:22:11.978Z,86.50
2018-02-21T01:24:39.429Z,85.90
2018-02-21T01:27:06.990Z,86.20
2018-02-21T01:29:35.222Z,86.13
2018-02-21T01:32:02.682Z,88.47
2018-02-21T01:34:30.133Z,92.90
2018-02-21T01:36:57.590Z,93.33
2018-02-21T01:39:25.047Z,91.93
2018-02-21T01:41:52.507Z,87.47
2018-02-21T01:44:19.971Z,90.33
2018-02-21T01:46:47.447Z,85.77
2018-02-21T01:49:14.897Z,89.60
2018-02-21T01:51:42.362Z,90.53
2018-02-21T01:54:09.818Z,85.83
2018-02-21T01:56:37.294Z,89.37
2018-02-21T01:59:04.804Z,87.17
2018-02-21T02:01:32.262Z,86.70
2018-02-21T02:03:59.723Z,92.27
2018-02-21T02:06:27.175Z,92.60
2018-02-21T02:08:54.650Z,90.63
2018-02-21T02:11:22.102Z,92.63
2018-02-21T02:13:49.566Z,93.23
2018-02-21T02:16:17.038Z,91.93
2018-02-21T02:18:45.261Z,85.10
2018-02-21T02:21:12.719Z,91.53
2018-02-21T02:23:40.226Z,86.97
2018-02-21T02:26:07.703Z,88.50
2018-02-21T02:28:35.182Z,91.07
2018-02-21T02:31:02.634Z,90.30
2018-02-21T02:33:30.103Z,88.40
2018-02-21T02:35:57.583Z,88.53
2018-02-21T02:38:36.876Z,91.20
2018-02-21T02:41:04.338Z,87.67
2018-02-21T02:43:31.804Z,94.67
2018-02-21T02:45:59.281Z,89.67
2018-02-21T02:48:26.755Z,82.83
2018-02-21T02:50:54.247Z,90.93
2018-02-21T02:53:21.691Z,81.60
2018-02-21T02:55:49.166Z,88.80
2018-02-21T02:58:16.620Z,87.83
2018-02-21T03:00:44.094Z,85.40
2018-02-21T03:03:11.732Z,86.37
2018-02-21T03:05:39.189Z,85.00
2018-02-21T03:08:06.641Z,91.03
2018-02-21T03:10:34.094Z,86.27
2018-02-21T03:13:01.563Z,87.73
2018-02-21T03:15:29.034Z,83.37
2018-02-21T03:17:56.525Z,90.93
2018-02-21T03:20:23.981Z,86.47
2018-02-21T03:22:51.453Z,89.67
2018-02-21T03:25:18.913Z,84.50
2018-02-21T03:27:46.371Z,91.63
2018-02-21T03:30:14.027Z,91.53
2018-02-21T03:32:41.474Z,84.13
2018-02-21T03:35:08.935Z,86.53
2018-02-21T03:37:36.397Z,82.10
2018-02-21T03:40:03.850Z,90.27
2018-02-21T03:42:31.318Z,84.87
2018-02-21T03:44:58.777Z,82.80
2018-02-21T03:47:26.242Z,89.57
2018-02-21T03:49:53.703Z,86.60
2018-02-21T03:52:21.166Z,86.03
2018-02-21T03:54:48.614Z,86.80
2018-02-21T03:57:16.099Z,83.97
2018-02-21T03:59:43.554Z,87.50
2018-02-21T04:02:11.011Z,88.93
2018-02-21T04:04:38.462Z,93.97
2018-02-21T04:07:05.926Z,87.40
2018-02-21T04:09:33.378Z,89.00
2018-02-21T04:12:00.836Z,80.50
2018-02-21T04:14:28.294Z,84.83
2018-02-21T04:16:55.754Z,88.47
2018-02-21T04:19:23.207Z,89.97
2018-02-21T04:21:50.674Z,89.17
2018-02-21T04:24:18.194Z,86.87
2018-02-21T04:26:45.656Z,87.73
2018-02-21T04:29:13.113Z,88.90
2018-02-21T04:31:40.557Z,86.33
2018-02-21T04:34:08.022Z,78.43
2018-02-21T04:36:35.478Z,84.30
2018-02-21T04:39:02.953Z,90.07
2018-02-21T04:41:30.397Z,83.30
2018-02-21T04:43:57.874Z,87.10
2018-02-21T04:46:25.321Z,92.33
2018-02-21T04:48:52.794Z,84.70
2018-02-21T04:51:20.306Z,85.13
2018-02-21T04:53:47.777Z,83.87
2018-02-21T04:56:21.587Z,85.70
2018-02-21T04:58:54.669Z,83.70
2018-02-21T05:01:22.894Z,90.00
2018-02-21T05:03:50.387Z,80.77
2018-02-21T05:06:17.839Z,88.03
2018-02-21T05:08:45.298Z,87.93
2018-02-21T05:11:12.754Z,81.90
2018-02-21T05:13:40.210Z,81.70
2018-02-21T05:16:07.673Z,91.23
2018-02-21T05:18:35.130Z,86.60
2018-02-21T05:21:02.614Z,80.80
2018-02-21T05:23:30.072Z,83.70
2018-02-21T05:25:57.530Z,89.07
2018-02-21T05:28:24.982Z,88.03
2018-02-21T05:30:52.438Z,82.47
2018-02-21T05:33:19.890Z,90.33
2018-02-21T05:35:47.359Z,87.40
2018-02-21T05:38:14.815Z,84.10
2018-02-21T05:40:42.280Z,87.47
2018-02-21T05:43:09.783Z,91.53
2018-02-21T05:45:37.280Z,87.97
2018-02-21T05:48:06.342Z,103.07
2018-02-21T05:50:34.002Z,89.07
2018-02-21T05:53:01.493Z,93.60
2018-02-21T05:55:29.024Z,99.80
2018-02-21T05:57:56.511Z,94.70
2018-02-21T06:00:23.967Z,96.70
2018-02-21T06:02:51.478Z,90.23
2018-02-21T06:05:19.050Z,87.47
2018-02-21T06:07:46.570Z,96.90
2018-02-21T06:10:14.115Z,94.77
2018-02-21T06:12:41.595Z,91.97
2018-02-21T06:15:09.070Z,89.80
2018-02-21T06:17:36.544Z,91.73
2018-02-21T06:20:04.009Z,99.47
2018-02-21T06:22:31.480Z,89.83
2018-02-21T06:24:58.933Z,95.77
2018-02-21T06:27:26.448Z,89.57
2018-02-21T06:29:53.878Z,90.80
2018-02-21T06:32:21.522Z,89.23
2018-02-21T06:34:48.978Z,97.80
2018-02-21T06:37:16.449Z,102.87
2018-02-21T06:39:43.895Z,90.00
2018-02-21T06:42:11.787Z,85.77
2018-02-21T06:44:39.238Z,95.00
2018-02-21T06:47:06.687Z,89.80
2018-02-21T06:49:34.157Z,99.50
2018-02-21T06:52:01.636Z,91.50
2018-02-21T06:54:29.094Z,92.33
2018-02-21T06:56:56.549Z,90.97
2018-02-21T06:59:24.014Z,95.70
2018-02-21T07:01:51.498Z,102.87
2018-02-21T07:04:18.953Z,104.67
2018-02-21T07:06:47.166Z,105.07
2018-02-21T07:09:14.633Z,98.43
2018-02-21T07:11:42.090Z,157.43
2018-02-21T07:14:09.553Z,138.33
2018-02-21T07:16:37.051Z,118.80
2018-02-21T07:19:04.542Z,113.37
2018-02-21T07:21:31.974Z,106.33
2018-02-21T07:23:59.434Z,101.57
2018-02-21T07:26:26.881Z,114.63
2018-02-21T07:28:54.371Z,111.13
2018-02-21T07:31:21.826Z,107.73
2018-02-21T07:33:49.303Z,104.70
2018-02-21T07:36:16.766Z,102.30
2018-02-21T07:38:44.217Z,105.00
2018-02-21T07:41:11.682Z,111.50
2018-02-21T07:43:39.133Z,117.83
2018-02-21T07:46:06.630Z,98.57
2018-02-21T07:48:34.854Z,94.67
2018-02-21T07:51:02.324Z,102.17
2018-02-21T07:53:29.778Z,111.60
2018-02-21T07:55:57.245Z,100.77
2018-02-21T07:58:24.699Z,120.60
2018-02-21T08:00:52.157Z,99.30
2018-02-21T08:03:19.610Z,94.07
2018-02-21T08:05:47.065Z,96.50
2018-02-21T08:08:14.727Z,94.60
2018-02-21T08:10:42.214Z,96.47
2018-02-21T08:13:09.665Z,90.67
2018-02-21T08:15:37.118Z,90.53
2018-02-21T08:18:04.595Z,92.33
2018-02-21T08:20:32.045Z,91.50
2018-02-21T08:22:59.522Z,98.00
2018-02-21T08:25:26.974Z,92.53
2018-02-21T08:27:54.422Z,85.97
2018-02-21T08:30:21.965Z,81.43
2018-02-21T08:32:49.447Z,86.27
2018-02-21T08:35:16.894Z,76.80
2018-02-21T08:37:44.352Z,78.03
2018-02-21T08:40:11.822Z,88.33
2018-02-21T08:42:39.295Z,73.83
2018-02-21T08:45:06.749Z,82.63
2018-02-21T08:47:34.218Z,75.77
2018-02-21T08:50:01.853Z,74.60
2018-02-21T08:52:29.317Z,73.87
2018-02-21T08:54:56.770Z,73.03
2018-02-21T08:57:24.226Z,71.70
2018-02-21T08:59:51.679Z,67.17
2018-02-21T09:02:19.140Z,70.63
2018-02-21T09:04:46.594Z,68.47
2018-02-21T09:07:14.038Z,73.60
2018-02-21T09:09:41.494Z,70.60
2018-02-21T09:12:08.942Z,67.20
2018-02-21T09:14:36.411Z,73.30
2018-02-21T09:17:03.870Z,67.37
2018-02-21T09:19:31.326Z,70.63
2018-02-21T09:21:58.781Z,66.23
2018-02-21T09:24:26.267Z,66.33
2018-02-21T09:26:53.758Z,65.30
2018-02-21T09:29:21.230Z,61.37
2018-02-21T09:31:48.678Z,60.93
2018-02-21T09:34:16.143Z,73.17
2018-02-21T09:36:43.583Z,69.13
2018-02-21T09:39:11.149Z,70.20
2018-02-21T09:41:38.606Z,76.37
2018-02-21T09:44:06.084Z,65.20
2018-02-21T09:46:34.298Z,61.20
2018-02-21T09:49:01.767Z,63.23
2018-02-21T09:51:29.217Z,59.97
2018-02-21T09:53:56.698Z,60.70
2018-02-21T09:56:24.178Z,67.60
2018-02-21T09:58:51.630Z,60.17
2018-02-21T10:01:19.231Z,58.17
2018-02-21T10:03:46.698Z,54.97
2018-02-21T10:06:14.160Z,60.83
2018-02-21T10:08:41.610Z,56.43
2018-02-21T10:11:09.070Z,53.30
2018-02-21T10:13:36.526Z,59.30
2018-02-21T10:16:03.990Z,57.60
2018-02-21T10:18:31.448Z,52.47
2018-02-21T10:20:58.912Z,53.37
2018-02-21T10:23:26.365Z,55.10
2018-02-21T10:25:53.821Z,49.00
2018-02-21T10:28:21.274Z,51.27
2018-02-21T10:30:48.768Z,53.77
2018-02-21T10:33:16.219Z,53.90
2018-02-21T10:35:43.698Z,48.70
2018-02-21T10:38:11.145Z,51.47
2018-02-21T10:40:38.622Z,52.20
2018-02-21T10:43:06.107Z,50.07
2018-02-21T10:45:33.562Z,49.27
2018-02-21T10:48:01.036Z,49.63
2018-02-21T10:50:28.482Z,57.23
2018-02-21T10:52:55.949Z,46.93
2018-02-21T10:55:23.444Z,48.17
2018-02-21T10:57:50.894Z,50.23
2018-02-21T11:00:24.106Z,57.07
2018-02-21T11:02:51.562Z,52.50
2018-02-21T11:05:19.019Z,49.77
2018-02-21T11:07:46.478Z,48.50
2018-02-21T11:10:13.924Z,53.97
2018-02-21T11:12:41.391Z,49.30
2018-02-21T11:15:08.846Z,47.33
2018-02-21T11:17:36.316Z,48.27
2018-02-21T11:20:03.768Z,45.00
2018-02-21T11:22:31.250Z,45.03
2018-02-21T11:24:58.718Z,45.50
2018-02-21T11:27:26.175Z,43.20
2018-02-21T11:29:53.630Z,45.67
2018-02-21T11:32:21.098Z,46.73
2018-02-21T11:34:48.558Z,44.00
2018-02-21T11:37:16.006Z,43.20
2018-02-21T11:39:43.509Z,45.07
2018-02-21T11:42:10.953Z,44.93
2018-02-21T11:44:38.414Z,43.80
2018-02-21T11:47:06.004Z,48.10
2018-02-21T11:49:33.455Z,44.27
2018-02-21T11:52:00.905Z,44.20
2018-02-21T11:54:28.383Z,47.40
2018-02-21T11:56:56.299Z,45.50
2018-02-21T11:59:23.769Z,39.73
2018-02-21T12:01:51.287Z,45.10
2018-02-21T12:04:18.834Z,45.07
2018-02-21T12:06:46.290Z,44.17
2018-02-21T12:09:13.757Z,43.60
2018-02-21T12:11:41.209Z,40.23
2018-02-21T12:14:08.674Z,41.50
2018-02-21T12:16:36.130Z,42.70
2018-02-21T12:19:03.602Z,42.43
2018-02-21T12:21:31.082Z,43.83
2018-02-21T12:23:58.590Z,41.57
2018-02-21T12:26:26.054Z,39.47
2018-02-21T12:28:53.518Z,40.50
2018-02-21T12:31:21.743Z,39.60
2018-02-21T12:33:49.202Z,41.97
2018-02-21T12:36:16.657Z,39.10
2018-02-21T12:38:44.124Z,39.60
2018-02-21T12:41:17.270Z,36.23
2018-02-21T12:43:44.739Z,37.80
2018-02-21T12:46:12.204Z,37.97
2018-02-21T12:48:39.657Z,40.67
2018-02-21T12:51:07.116Z,34.03
2018-02-21T12:53:34.558Z,36.13
2018-02-21T12:56:02.177Z,34.03
2018-02-21T12:58:29.630Z,35.80
2018-02-21T13:00:57.082Z,37.93
2018-02-21T13:03:24.534Z,33.73
2018-02-21T13:05:52.031Z,32.80
2018-02-21T13:08:19.457Z,38.87
2018-02-21T13:10:47.137Z,43.60
2018-02-21T13:13:14.664Z,41.23
2018-02-21T13:15:42.115Z,37.17
2018-02-21T13:18:09.727Z,34.23
2018-02-21T13:20:37.185Z,33.80
2018-02-21T13:23:04.638Z,33.03
2018-02-21T13:25:32.096Z,42.13
2018-02-21T13:27:59.557Z,36.27
2018-02-21T13:30:27.010Z,37.60
2018-02-21T13:32:54.473Z,33.33
2018-02-21T13:35:21.931Z,34.03
2018-02-21T13:37:49.499Z,35.93
2018-02-21T13:40:16.893Z,35.50
2018-02-21T13:42:44.354Z,33.57
2018-02-21T13:45:11.850Z,35.63
2018-02-21T13:47:39.311Z,35.07
2018-02-21T13:50:06.789Z,35.07
2018-02-21T13:52:35.054Z,37.50
2018-02-21T13:55:02.526Z,33.40
2018-02-21T13:57:29.974Z,32.47
2018-02-21T13:59:57.423Z,31.47
2018-02-21T14:02:24.892Z,33.30
2018-02-21T14:04:52.347Z,32.63
2018-02-21T14:07:20.658Z,34.50
2018-02-21T14:09:48.118Z,39.00
2018-02-21T14:12:16.117Z,40.53
2018-02-21T14:14:43.531Z,37.87
2018-02-21T14:17:11.001Z,41.17
2018-02-21T14:19:38.455Z,38.67
2018-02-21T14:22:06.754Z,37.23
2018-02-21T14:24:34.219Z,36.33
2018-02-21T14:27:01.666Z,37.97
2018-02-21T14:29:29.126Z,42.00
2018-02-21T14:31:56.582Z,40.70
2018-02-21T14:34:24.063Z,39.77
2018-02-21T14:36:51.530Z,43.37
2018-02-21T14:39:18.982Z,65.50
2018-02-21T14:41:47.217Z,69.53
2018-02-21T14:44:14.794Z,41.90
2018-02-21T14:46:42.246Z,48.03
2018-02-21T14:49:12.173Z,59.07
2018-02-21T14:51:39.622Z,57.17
2018-02-21T14:54:07.100Z,44.50
2018-02-21T14:56:34.548Z,36.87
2018-02-21T14:59:02.022Z,41.73
2018-02-21T15:01:30.298Z,41.03
2018-02-21T15:03:57.775Z,39.07
2018-02-21T15:06:25.235Z,38.60
2018-02-21T15:08:52.695Z,46.20
2018-02-21T15:11:20.157Z,38.50
2018-02-21T15:13:47.612Z,42.70
2018-02-21T15:16:20.815Z,38.63
2018-02-21T15:18:48.271Z,41.37
2018-02-21T15:21:15.758Z,39.27
2018-02-21T15:23:43.210Z,37.83
2018-02-21T15:26:10.670Z,39.10
2018-02-21T15:28:38.124Z,37.13
2018-02-21T15:31:05.596Z,43.27
2018-02-21T15:33:33.053Z,39.73
2018-02-21T15:36:00.508Z,35.80
2018-02-21T15:38:27.962Z,39.53
2018-02-21T15:40:55.418Z,39.40
2018-02-21T15:43:22.875Z,38.33
2018-02-21T15:45:50.362Z,40.33
2018-02-21T15:48:17.822Z,36.63
2018-02-21T15:50:45.331Z,39.00
2018-02-21T15:53:12.819Z,38.77
2018-02-21T15:55:40.265Z,40.13
2018-02-21T15:58:07.729Z,38.13
2018-02-21T16:00:42.118Z,36.73
2018-02-21T16:03:11.150Z,40.83
2018-02-21T16:05:40.345Z,36.77
2018-02-21T16:08:08.936Z,37.23
2018-02-21T16:10:37.446Z,40.23
2018-02-21T16:13:07.001Z,38.13
2018-02-21T16:15:36.084Z,39.30
2018-02-21T16:18:04.505Z,40.07
2018-02-21T16:20:32.697Z,39.13
2018-02-21T16:23:00.895Z,40.90
2018-02-21T16:25:29.272Z,41.27
2018-02-21T16:27:58.020Z,42.63
2018-02-21T16:30:25.954Z,42.23
2018-02-21T16:32:53.826Z,40.80
2018-02-21T16:35:21.411Z,42.13
2018-02-21T16:37:49.973Z,42.60
2018-02-21T16:40:18.876Z,40.93
2018-02-21T16:42:49.349Z,40.03
2018-02-21T16:45:20.561Z,46.73
2018-02-21T16:47:49.090Z,46.80
2018-02-21T16:50:17.252Z,43.43
2018-02-21T16:52:45.043Z,40.30
2018-02-21T16:55:12.874Z,44.80
2018-02-21T16:57:41.178Z,45.87
2018-02-21T17:00:09.466Z,42.20
2018-02-21T17:02:40.585Z,46.50
2018-02-21T17:05:09.079Z,52.27
2018-02-21T17:07:39.072Z,50.50
2018-02-21T17:10:08.527Z,47.10
2018-02-21T17:12:37.810Z,45.63
2018-02-21T17:15:06.562Z,48.80
2018-02-21T17:17:35.162Z,45.90
2018-02-21T17:20:03.592Z,46.73
2018-02-21T17:22:32.903Z,48.70
2018-02-21T17:25:01.584Z,47.70
2018-02-21T17:27:29.575Z,51.07
2018-02-21T17:29:59.052Z,44.33
2018-02-21T17:32:27.691Z,49.60
2018-02-21T17:34:56.359Z,47.00
2018-02-21T17:37:25.785Z,51.93
2018-02-21T17:39:54.322Z,50.37
2018-02-21T17:42:23.099Z,47.77
2018-02-21T17:44:51.209Z,46.97
2018-02-21T17:47:21.434Z,46.43
2018-02-21T17:49:50.733Z,47.40
2018-02-21T17:52:19.754Z,48.53
2018-02-21T17:54:47.809Z,45.37
2018-02-21T17:57:16.084Z,56.80
2018-02-21T17:59:44.665Z,48.57
2018-02-21T18:02:13.563Z,52.17
2018-02-21T18:04:41.724Z,48.37
2018-02-21T18:07:11.162Z,52.10
2018-02-21T18:09:38.898Z,46.87
2018-02-21T18:12:07.198Z,52.60
2018-02-21T18:14:35.785Z,52.47
2018-02-21T18:17:04.091Z,49.57
2018-02-21T18:19:32.107Z,54.77
2018-02-21T18:22:03.489Z,52.27
2018-02-21T18:24:31.501Z,53.97
2018-02-21T18:26:59.445Z,52.03
2018-02-21T18:29:28.777Z,54.23
2018-02-21T18:31:57.733Z,49.47
2018-02-21T18:34:25.857Z,53.43
2018-02-21T18:36:54.136Z,55.40
2018-02-21T18:39:22.353Z,49.47
2018-02-21T18:41:50.967Z,54.60
2018-02-21T18:44:19.177Z,51.80
2018-02-21T18:46:48.416Z,50.57
2018-02-21T18:49:19.868Z,51.97
2018-02-21T18:51:48.124Z,55.13
2018-02-21T18:54:16.947Z,49.13
2018-02-21T18:56:47.734Z,52.87
2018-02-21T18:59:17.178Z,47.77
2018-02-21T19:01:45.812Z,51.77
2018-02-21T19:04:15.432Z,47.20
2018-02-21T19:06:44.629Z,45.80
2018-02-21T19:09:13.484Z,43.03
2018-02-21T19:11:43.353Z,46.83
2018-02-21T19:14:12.074Z,46.63
2018-02-21T19:16:40.972Z,48.47
2018-02-21T19:19:10.778Z,46.33
2018-02-21T19:21:39.592Z,46.43
2018-02-21T19:24:08.107Z,49.03
2018-02-21T19:26:36.902Z,42.07
2018-02-21T19:29:06.956Z,46.57
2018-02-21T19:31:36.075Z,46.50
2018-02-21T19:34:05.305Z,43.30
2018-02-21T19:36:34.126Z,45.97
2018-02-21T19:39:02.679Z,45.47
2018-02-21T19:41:30.393Z,42.10
2018-02-21T19:43:58.731Z,43.20
2018-02-21T19:46:27.522Z,52.03
2018-02-21T19:48:56.034Z,39.50
2018-02-21T19:51:23.980Z,37.95
2018-02-21T19:53:51.765Z,38.40
2018-02-21T19:56:19.491Z,36.47
2018-02-21T19:58:48.107Z,36.70
2018-02-21T20:01:18.298Z,37.30
2018-02-21T20:03:47.281Z,36.47
2018-02-21T20:06:16.587Z,41.23
2018-02-21T20:08:45.696Z,36.33
2018-02-21T20:11:13.947Z,38.50
2018-02-21T20:13:44.245Z,37.73
2018-02-21T20:16:13.321Z,37.47
2018-02-21T20:18:43.083Z,37.43
2018-02-21T20:21:11.933Z,35.80
2018-02-21T20:23:40.000Z,35.60
2018-02-21T20:26:08.384Z,33.97
2018-02-21T20:28:37.449Z,40.20
2018-02-21T20:31:05.558Z,34.33
2018-02-21T20:33:34.090Z,34.17
2018-02-21T20:36:01.997Z,41.17
2018-02-21T20:38:29.569Z,33.47
2018-02-21T20:40:57.177Z,36.40
2018-02-21T20:43:25.620Z,42.57
2018-02-21T20:45:54.361Z,39.23
2018-02-21T20:48:22.685Z,35.97
2018-02-21T20:50:50.514Z,34.70
2018-02-21T20:53:18.129Z,33.67
2018-02-21T20:55:45.706Z,38.87
2018-02-21T20:58:15.572Z,39.53
2018-02-21T21:00:44.052Z,35.07
2018-02-21T21:03:11.959Z,38.90
2018-02-21T21:05:41.446Z,37.70
2018-02-21T21:08:13.189Z,35.70
2018-02-21T21:10:41.543Z,36.27
2018-02-21T21:13:10.030Z,35.57
2018-02-21T21:15:37.925Z,35.90
2018-02-21T21:18:07.110Z,35.90
2018-02-21T21:20:35.822Z,34.93
2018-02-21T21:23:03.740Z,33.77
2018-02-21T21:25:31.653Z,35.37
2018-02-21T21:27:59.387Z,33.70
2018-02-21T21:30:28.921Z,31.23
2018-02-21T21:32:57.290Z,36.57
2018-02-21T21:35:26.252Z,33.67
2018-02-21T21:37:54.043Z,35.10
2018-02-21T21:40:23.003Z,35.87
2018-02-21T21:42:52.063Z,32.67
2018-02-21T21:45:21.178Z,38.87
2018-02-21T21:47:49.230Z,39.17
2018-02-21T21:50:17.125Z,36.30
2018-02-21T21:52:45.162Z,33.40
2018-02-21T21:55:14.700Z,35.63
2018-02-21T21:57:42.373Z,35.33
2018-02-21T22:00:10.391Z,34.30
2018-02-21T22:02:37.947Z,35.07
2018-02-21T22:05:05.868Z,33.30
2018-02-21T22:07:34.844Z,37.43
2018-02-21T22:10:04.155Z,33.40
2018-02-21T22:12:31.765Z,34.97
2018-02-21T22:15:00.427Z,35.90
2018-02-21T22:17:28.262Z,32.87
2018-02-21T22:19:56.792Z,35.00
2018-02-21T22:22:24.673Z,34.77
2018-02-21T22:24:52.425Z,34.23
2018-02-21T22:27:20.085Z,32.33
2018-02-21T22:29:47.951Z,31.10
2018-02-21T22:32:15.700Z,34.47
2018-02-21T22:34:43.957Z,35.90
2018-02-21T22:37:11.585Z,31.93
2018-02-21T22:39:39.167Z,33.93
2018-02-21T22:42:06.818Z,32.77
2018-02-21T22:44:35.170Z,34.53
2018-02-21T22:47:03.054Z,37.53
2018-02-21T22:49:30.800Z,34.87
2018-02-21T22:51:59.427Z,32.43
2018-02-21T22:54:27.016Z,35.70
2018-02-21T22:56:55.307Z,33.60
2018-02-21T22:59:23.423Z,34.23
2018-02-21T23:01:51.010Z,31.53
2018-02-21T23:04:18.473Z,34.00
2018-02-21T23:06:45.974Z,32.43
2018-02-21T23:09:13.381Z,28.90
2018-02-21T23:11:40.837Z,32.23
2018-02-21T23:14:08.298Z,31.60
2018-02-21T23:16:35.751Z,30.33
2018-02-21T23:19:03.262Z,32.80
2018-02-21T23:21:30.710Z,30.90
2018-02-21T23:23:58.171Z,31.53
2018-02-21T23:26:25.609Z,31.87
2018-02-21T23:28:53.069Z,31.37
2018-02-21T23:31:20.514Z,34.10
2018-02-21T23:33:47.978Z,28.63
2018-02-21T23:36:15.996Z,29.77
2018-02-21T23:38:43.462Z,29.93
2018-02-21T23:41:10.920Z,28.97
2018-02-21T23:43:38.506Z,30.00
2018-02-21T23:46:06.769Z,34.37
2018-02-21T23:48:34.214Z,28.60
2018-02-21T23:51:01.682Z,29.67
2018-02-21T23:53:29.146Z,29.80
2018-02-21T23:55:56.610Z,32.57
2018-02-21T23:58:24.066Z,26.67
